Time;durP1;ratioP1;P1;durP2;ratioP2;P2;SDS_P1;SDS_P2;PMS_P1;PMS_P2;Temp;Humidity;BMP_temperature;BMP_pressure;BME280_temperature;BME280_humidity;BME280_pressure;Samples;Min_cycle;Max_cycle;Signal;HPM_P1;HPM_P2
2022/01/16 00:04:55;;;;;;;43.95;26.83;;;1.60;61.20;;;;;;5062989;28;20033;-21
2022/01/16 00:07:21;;;;;;;51.45;31.52;;;1.60;63.30;;;;;;5072843;28;20401;-21
2022/01/16 00:09:47;;;;;;;26.48;15.38;;;1.60;62.30;;;;;;5072952;28;20031;-20
2022/01/16 00:12:14;;;;;;;35.05;22.13;;;1.50;61.60;;;;;;5072650;28;20388;-20
2022/01/16 00:14:40;;;;;;;23.75;14.40;;;1.50;61.30;;;;;;5072887;28;20447;-20
2022/01/16 00:17:06;;;;;;;16.25;9.13;;;1.50;61.40;;;;;;5072861;28;20016;-21
2022/01/16 00:19:32;;;;;;;22.25;12.25;;;1.50;61.00;;;;;;5072765;28;20055;-20
2022/01/16 00:21:58;;;;;;;23.17;12.75;;;1.40;60.80;;;;;;5072728;28;20112;-20
2022/01/16 00:24:24;;;;;;;29.38;18.17;;;1.40;61.40;;;;;;5072593;28;20043;-20
2022/01/16 00:26:50;;;;;;;21.83;11.98;;;1.40;60.80;;;;;;5072709;28;20032;-21
2022/01/16 00:29:16;;;;;;;17.77;10.23;;;1.40;61.40;;;;;;5071561;28;20115;-20
2022/01/16 00:31:42;;;;;;;57.83;34.85;;;1.40;61.50;;;;;;5072946;28;20393;-21
2022/01/16 00:34:10;;;;;;;29.40;17.17;;;1.30;62.40;;;;;;5073000;28;20029;-21
2022/01/16 00:36:36;;;;;;;17.85;10.20;;;1.30;61.50;;;;;;5072574;28;20143;-20
2022/01/16 00:39:04;;;;;;;35.92;19.80;;;1.30;61.50;;;;;;5072603;28;20103;-20
2022/01/16 00:41:31;;;;;;;47.50;27.02;;;1.20;62.00;;;;;;5072657;28;20028;-20
2022/01/16 00:43:57;;;;;;;66.43;38.65;;;1.20;64.90;;;;;;5072907;28;20035;-20
2022/01/16 00:46:23;;;;;;;29.73;17.45;;;1.10;64.90;;;;;;5072396;28;20032;-20
2022/01/16 00:48:49;;;;;;;41.42;24.48;;;1.10;64.30;;;;;;5072899;28;20111;-20
2022/01/16 00:51:16;;;;;;;32.72;20.13;;;1.20;64.30;;;;;;5072779;28;20036;-20
2022/01/16 00:53:43;;;;;;;38.88;22.38;;;1.10;63.50;;;;;;5072523;28;20112;-20
2022/01/16 00:56:10;;;;;;;29.88;16.42;;;1.20;63.10;;;;;;5071173;28;20052;-21
2022/01/16 00:58:36;;;;;;;32.42;18.40;;;1.30;62.60;;;;;;5072371;28;20029;-20
2022/01/16 01:01:02;;;;;;;22.83;11.30;;;1.30;62.20;;;;;;5072420;28;20031;-20
2022/01/16 01:03:30;;;;;;;47.85;29.23;;;1.40;62.10;;;;;;5072389;28;20070;-20
2022/01/16 01:05:56;;;;;;;32.38;17.85;;;1.40;62.60;;;;;;5072679;28;20484;-21
2022/01/16 01:08:23;;;;;;;38.28;24.02;;;1.40;62.10;;;;;;5072715;28;20020;-21
2022/01/16 01:10:52;;;;;;;38.75;22.40;;;1.50;62.60;;;;;;5076040;28;20103;-21
2022/01/16 01:13:32;;;;;;;30.67;15.27;;;1.40;62.50;;;;;;5075965;28;20039;-21
2022/01/16 01:16:03;;;;;;;22.55;12.30;;;1.40;61.80;;;;;;5075958;28;20056;-21
2022/01/16 01:18:32;;;;;;;27.13;14.73;;;1.40;61.20;;;;;;5075572;28;20055;-21
2022/01/16 01:21:01;;;;;;;40.78;26.17;;;1.40;61.00;;;;;;5074592;28;20035;-21
2022/01/16 01:23:27;;;;;;;18.45;10.18;;;1.40;61.50;;;;;;5075992;28;20032;-21
2022/01/16 01:25:53;;;;;;;17.20;9.60;;;1.40;61.30;;;;;;5075721;28;20139;-21
2022/01/16 01:28:19;;;;;;;20.35;11.02;;;1.40;61.10;;;;;;5075544;28;20544;-21
2022/01/16 01:30:46;;;;;;;16.70;8.52;;;1.40;60.90;;;;;;5075619;28;20104;-21
2022/01/16 01:33:15;;;;;;;31.13;19.85;;;1.40;60.80;;;;;;5075672;28;20028;-21
2022/01/16 01:35:42;;;;;;;24.60;15.02;;;1.30;61.00;;;;;;5075839;28;20078;-21
2022/01/16 01:38:11;;;;;;;22.00;12.60;;;1.30;61.20;;;;;;5075416;28;20491;-21
2022/01/16 01:40:39;;;;;;;18.67;10.98;;;1.30;61.30;;;;;;5075698;28;20131;-21
2022/01/16 01:51:21;;;;;;;14.98;9.68;;;1.10;61.60;;;;;;5075514;28;20401;-22
2022/01/16 01:53:47;;;;;;;59.65;36.17;;;1.00;61.50;;;;;;5075517;28;20102;-21
2022/01/16 01:56:21;;;;;;;31.42;18.35;;;1.00;62.10;;;;;;5074932;28;20534;-21
2022/01/16 01:58:47;;;;;;;27.80;16.08;;;1.00;63.20;;;;;;5075385;28;20024;-21
2022/01/16 02:01:13;;;;;;;17.92;9.82;;;0.90;63.20;;;;;;5075111;28;20029;-20
2022/01/16 02:06:06;;;;;;;26.92;16.30;;;0.90;62.70;;;;;;5075872;28;20155;-21
2022/01/16 02:08:35;;;;;;;33.15;20.05;;;0.80;62.90;;;;;;5074751;28;20023;-21
2022/01/16 02:11:03;;;;;;;37.72;22.27;;;0.80;64.50;;;;;;5075099;28;20021;-20
2022/01/16 02:13:44;;;;;;;41.72;26.35;;;0.80;63.50;;;;;;5074849;28;20029;-20
2022/01/16 02:35:09;;;;;;;27.58;15.45;;;0.90;63.40;;;;;;5064243;28;20093;-21
2022/01/16 02:37:35;;;;;;;44.40;26.85;;;0.90;63.80;;;;;;5074275;28;20028;-21
2022/01/16 02:40:09;;;;;;;56.75;33.75;;;0.90;65.00;;;;;;5074598;28;20058;-21
2022/01/16 02:42:39;;;;;;;28.02;18.10;;;0.90;65.20;;;;;;5074097;28;20480;-21
2022/01/16 02:45:14;;;;;;;22.65;13.98;;;0.90;65.00;;;;;;5074468;28;20062;-21
2022/01/16 02:47:40;;;;;;;31.60;18.08;;;0.90;63.60;;;;;;5074549;28;20033;-21
2022/01/16 02:50:07;;;;;;;38.05;21.40;;;0.90;63.20;;;;;;5074180;28;20070;-20
2022/01/16 02:52:33;;;;;;;30.48;17.35;;;0.90;63.40;;;;;;5074254;28;20096;-20
2022/01/16 02:55:00;;;;;;;35.42;19.98;;;1.00;63.30;;;;;;5073822;28;20055;-21
2022/01/16 02:57:26;;;;;;;29.30;16.40;;;0.90;63.70;;;;;;5073955;28;20033;-21
2022/01/16 02:59:55;;;;;;;22.20;12.48;;;1.00;64.00;;;;;;5073828;28;20031;-21
2022/01/16 03:02:24;;;;;;;24.95;15.48;;;0.90;63.30;;;;;;5073695;28;20112;-21
2022/01/16 03:04:51;;;;;;;28.17;16.95;;;0.90;63.30;;;;;;5074078;28;20028;-21
2022/01/16 03:07:17;;;;;;;51.20;29.55;;;0.90;63.20;;;;;;5072434;28;20453;-21
2022/01/16 03:10:03;;;;;;;39.22;23.05;;;0.90;64.10;;;;;;5073677;28;20059;-21
2022/01/16 03:15:52;;;;;;;19.52;10.85;;;0.80;64.50;;;;;;5073990;28;20082;-21
2022/01/16 03:23:29;;;;;;;25.25;14.45;;;0.70;63.40;;;;;;5073619;28;20078;-21
2022/01/16 03:25:56;;;;;;;17.27;9.48;;;0.70;64.10;;;;;;5073566;28;20028;-20
2022/01/16 03:28:25;;;;;;;14.80;7.88;;;0.70;63.30;;;;;;5073509;28;20039;-20
2022/01/16 03:30:53;;;;;;;14.95;7.82;;;0.70;63.20;;;;;;5073046;28;20032;-20
2022/01/16 03:33:20;;;;;;;16.02;9.80;;;0.60;63.50;;;;;;5073907;28;20484;-21
2022/01/16 03:35:47;;;;;;;15.05;10.10;;;0.60;63.30;;;;;;5073625;28;20097;-20
2022/01/16 03:38:14;;;;;;;18.75;10.10;;;0.60;63.20;;;;;;5073331;28;20017;-21
2022/01/16 03:40:41;;;;;;;21.02;12.10;;;0.50;63.30;;;;;;5073511;28;20029;-20
2022/01/16 03:43:14;;;;;;;25.00;14.93;;;0.50;63.10;;;;;;5073183;28;20032;-21
2022/01/16 03:45:43;;;;;;;23.35;13.48;;;0.50;63.50;;;;;;5073252;28;20032;-20
2022/01/16 03:48:09;;;;;;;22.65;12.88;;;0.50;64.10;;;;;;5071993;28;20025;-20
2022/01/16 03:50:35;;;;;;;19.08;10.63;;;0.40;64.10;;;;;;5072939;28;20435;-20
2022/01/16 03:53:01;;;;;;;22.95;12.07;;;0.40;64.30;;;;;;5073283;28;20046;-20
2022/01/16 03:55:27;;;;;;;17.85;10.25;;;0.40;64.00;;;;;;5072953;28;20048;-20
2022/01/16 03:57:53;;;;;;;11.65;6.70;;;0.40;63.90;;;;;;5073071;28;20385;-20
2022/01/16 04:00:19;;;;;;;38.85;21.02;;;0.40;63.90;;;;;;5072732;28;20036;-19
2022/01/16 04:02:44;;;;;;;26.60;15.15;;;0.40;64.10;;;;;;5073005;28;20024;-20
2022/01/16 04:05:10;;;;;;;24.10;14.57;;;0.50;65.50;;;;;;5072997;28;20029;-19
2022/01/16 04:07:36;;;;;;;16.42;9.73;;;0.50;64.60;;;;;;5073090;28;20016;-20
2022/01/16 04:10:06;;;;;;;25.85;13.98;;;0.50;64.20;;;;;;5073076;28;20031;-19
2022/01/16 04:12:34;;;;;;;21.42;12.82;;;0.60;64.00;;;;;;5073016;28;20028;-20
2022/01/16 04:17:27;;;;;;;22.58;11.13;;;0.60;65.00;;;;;;5072958;28;20055;-20
2022/01/16 04:19:53;;;;;;;21.73;11.32;;;0.60;64.10;;;;;;5072941;28;20074;-20
2022/01/16 04:22:20;;;;;;;17.70;10.32;;;0.60;64.50;;;;;;5071367;28;20400;-19
2022/01/16 04:24:48;;;;;;;18.98;10.52;;;0.60;64.30;;;;;;5073552;28;20108;-19
2022/01/16 04:27:15;;;;;;;39.15;24.10;;;0.60;64.10;;;;;;5072814;28;20086;-20
2022/01/16 04:29:44;;;;;;;21.02;12.95;;;0.60;67.10;;;;;;5073073;28;20546;-20
2022/01/16 04:32:11;;;;;;;48.58;27.38;;;0.60;65.60;;;;;;5072778;28;20025;-19
2022/01/16 04:34:37;;;;;;;37.15;20.08;;;0.50;69.00;;;;;;5072938;28;20020;-19
2022/01/16 04:37:04;;;;;;;29.27;16.02;;;0.50;69.10;;;;;;5073118;28;20485;-20
2022/01/16 04:39:33;;;;;;;31.25;18.25;;;0.50;67.60;;;;;;5072920;28;20035;-20
2022/01/16 04:44:45;;;;;;;36.70;20.52;;;0.50;68.80;;;;;;5075715;28;20090;-20
2022/01/16 04:47:11;;;;;;;28.02;15.52;;;0.50;67.90;;;;;;5076405;28;20027;-19
2022/01/16 04:49:37;;;;;;;21.77;12.65;;;0.50;67.30;;;;;;5076693;28;20021;-20
2022/01/16 04:52:04;;;;;;;23.42;13.75;;;0.40;66.60;;;;;;5076564;28;20415;-20
2022/01/16 04:54:31;;;;;;;29.27;16.65;;;0.50;66.30;;;;;;5074632;28;20401;-19
2022/01/16 04:56:58;;;;;;;18.92;10.88;;;0.40;66.30;;;;;;5076593;28;20039;-20
2022/01/16 04:59:24;;;;;;;14.65;7.28;;;0.40;66.10;;;;;;5076349;28;20488;-19
2022/01/16 05:01:51;;;;;;;17.08;8.48;;;0.40;65.60;;;;;;5076467;28;20031;-19
2022/01/16 05:04:17;;;;;;;11.32;5.97;;;0.50;65.10;;;;;;5076060;28;20016;-20
2022/01/16 05:06:43;;;;;;;24.75;13.50;;;0.50;65.20;;;;;;5076571;28;20021;-20
2022/01/16 05:09:09;;;;;;;10.00;5.55;;;0.50;65.00;;;;;;5076035;28;20099;-20
2022/01/16 05:11:35;;;;;;;10.50;5.40;;;0.50;64.90;;;;;;5076354;28;20016;-20
2022/01/16 05:16:35;;;;;;;9.90;4.82;;;0.50;64.20;;;;;;5075872;28;20067;-19
2022/01/16 05:19:09;;;;;;;9.60;5.18;;;0.50;64.10;;;;;;5075835;28;20037;-20
2022/01/16 05:21:36;;;;;;;10.23;5.28;;;0.50;63.80;;;;;;5076260;28;20036;-19
2022/01/16 05:24:07;;;;;;;12.20;5.22;;;0.40;64.10;;;;;;5075975;28;20036;-20
2022/01/16 05:26:35;;;;;;;29.85;14.73;;;0.40;63.80;;;;;;5075854;28;20529;-19
2022/01/16 05:29:02;;;;;;;16.95;8.95;;;0.40;64.00;;;;;;5076008;28;20027;-20
2022/01/16 05:31:28;;;;;;;14.88;8.38;;;0.30;64.10;;;;;;5075658;28;20035;-20
2022/01/16 05:33:54;;;;;;;8.80;4.88;;;0.30;64.10;;;;;;5076219;28;20108;-20
2022/01/16 05:36:21;;;;;;;9.52;5.28;;;0.30;63.80;;;;;;5075630;28;20039;-19
2022/01/16 05:38:47;;;;;;;9.30;5.28;;;0.30;63.70;;;;;;5075354;28;20032;-20
2022/01/16 05:41:13;;;;;;;9.65;5.47;;;0.20;63.60;;;;;;5075777;28;20051;-20
2022/01/16 05:43:39;;;;;;;22.27;12.93;;;0.20;63.50;;;;;;5075608;28;20035;-19
2022/01/16 05:46:05;;;;;;;10.70;6.15;;;0.20;63.90;;;;;;5075453;28;20024;-19
2022/01/16 05:48:32;;;;;;;10.15;5.30;;;0.10;63.90;;;;;;5075916;28;20044;-19
2022/01/16 05:50:58;;;;;;;7.32;4.50;;;0.10;63.80;;;;;;5075593;28;20016;-20
2022/01/16 05:53:24;;;;;;;8.50;4.10;;;0.10;63.70;;;;;;5075145;28;20032;-20
2022/01/16 05:55:50;;;;;;;11.43;6.95;;;0.00;63.60;;;;;;5073312;28;20044;-19
2022/01/16 05:58:16;;;;;;;11.80;6.82;;;0.00;63.80;;;;;;5074962;28;20027;-20
2022/01/16 06:00:44;;;;;;;7.55;4.35;;;0.00;64.00;;;;;;5074939;28;20029;-19
2022/01/16 06:03:10;;;;;;;6.75;3.83;;;0.00;63.90;;;;;;5075416;28;20162;-20
2022/01/16 06:05:36;;;;;;;10.77;5.45;;;0.00;63.80;;;;;;5073784;28;20548;-19
2022/01/16 06:08:08;;;;;;;9.88;5.32;;;-0.10;64.00;;;;;;5075115;28;20036;-19
2022/01/16 06:10:34;;;;;;;15.88;8.63;;;-0.10;63.90;;;;;;5074833;28;20033;-20
2022/01/16 06:13:02;;;;;;;14.13;8.10;;;-0.20;64.20;;;;;;5075201;28;20024;-19
2022/01/16 06:15:28;;;;;;;9.70;5.18;;;-0.20;64.30;;;;;;5075618;28;20041;-19
2022/01/16 06:17:54;;;;;;;7.82;4.38;;;-0.20;64.20;;;;;;5075089;28;20036;-19
2022/01/16 06:20:20;;;;;;;19.50;11.52;;;-0.20;64.10;;;;;;5074521;28;20028;-20
2022/01/16 06:22:46;;;;;;;15.80;8.82;;;-0.30;64.40;;;;;;5074892;28;20035;-19
2022/01/16 06:25:13;;;;;;;25.98;14.00;;;-0.20;64.20;;;;;;5074670;28;20028;-19
2022/01/16 06:27:41;;;;;;;9.88;5.40;;;-0.20;64.40;;;;;;5074972;28;20035;-19
2022/01/16 06:30:10;;;;;;;11.15;6.03;;;-0.20;64.90;;;;;;5074847;28;20059;-19
2022/01/16 06:32:37;;;;;;;23.98;15.45;;;-0.20;64.90;;;;;;5074365;28;20112;-19
2022/01/16 06:35:07;;;;;;;23.27;12.75;;;-0.10;64.80;;;;;;5074538;28;20488;-19
2022/01/16 06:37:33;;;;;;;10.32;6.05;;;-0.10;65.30;;;;;;5074741;28;20476;-19
2022/01/16 06:39:59;;;;;;;11.20;5.78;;;-0.10;64.90;;;;;;5074456;28;20024;-19
2022/01/16 06:42:26;;;;;;;19.08;9.57;;;-0.10;64.40;;;;;;5074134;28;20024;-19
2022/01/16 06:44:52;;;;;;;31.15;17.98;;;-0.10;64.30;;;;;;5074651;28;20028;-19
2022/01/16 06:47:18;;;;;;;11.43;5.80;;;-0.10;64.70;;;;;;5073338;28;20029;-19
2022/01/16 06:49:44;;;;;;;15.52;8.20;;;-0.10;65.00;;;;;;5074144;28;20077;-19
2022/01/16 06:52:10;;;;;;;6.85;4.25;;;-0.10;64.60;;;;;;5074118;28;20016;-19
2022/01/16 06:54:36;;;;;;;7.25;4.10;;;-0.10;64.40;;;;;;5073998;28;20052;-19
2022/01/16 06:57:03;;;;;;;17.33;8.85;;;-0.10;64.10;;;;;;5074048;28;20465;-19
2022/01/16 06:59:28;;;;;;;11.32;7.32;;;-0.20;64.10;;;;;;5074197;28;20028;-19
2022/01/16 07:01:56;;;;;;;16.45;10.90;;;-0.10;64.30;;;;;;5074163;28;20099;-19
2022/01/16 07:04:22;;;;;;;10.30;6.22;;;-0.20;65.60;;;;;;5073984;28;20437;-19
2022/01/16 07:06:48;;;;;;;7.47;4.10;;;-0.20;65.20;;;;;;5072899;28;20439;-20
2022/01/16 07:09:14;;;;;;;7.20;3.97;;;-0.20;64.60;;;;;;5073901;28;20016;-19
2022/01/16 07:11:40;;;;;;;7.43;3.60;;;-0.20;64.40;;;;;;5074039;28;20377;-19
2022/01/16 07:14:06;;;;;;;6.75;3.70;;;-0.20;64.20;;;;;;5074012;28;20033;-19
2022/01/16 07:16:32;;;;;;;7.55;4.03;;;-0.20;64.20;;;;;;5073467;28;20037;-20
2022/01/16 07:18:58;;;;;;;7.18;4.00;;;-0.20;64.10;;;;;;5073495;28;20112;-20
2022/01/16 07:21:24;;;;;;;6.70;3.40;;;-0.20;64.00;;;;;;5073827;28;20123;-19
2022/01/16 07:23:53;;;;;;;8.02;5.07;;;-0.20;64.20;;;;;;5073344;28;20074;-20
2022/01/16 07:26:19;;;;;;;6.47;3.17;;;-0.10;64.20;;;;;;5073535;28;20090;-19
2022/01/16 07:28:46;;;;;;;6.88;3.90;;;-0.10;64.00;;;;;;5073438;28;20491;-20
2022/01/16 07:31:12;;;;;;;10.48;5.22;;;0.00;63.90;;;;;;5073714;28;20024;-19
2022/01/16 07:33:38;;;;;;;8.60;4.40;;;0.00;64.30;;;;;;5073353;28;20017;-20
2022/01/16 07:36:05;;;;;;;25.85;15.05;;;0.00;64.70;;;;;;5073351;28;20040;-19
2022/01/16 07:38:31;;;;;;;10.13;5.82;;;0.10;64.30;;;;;;5073327;28;20050;-19
2022/01/16 07:40:57;;;;;;;24.98;12.73;;;0.30;65.00;;;;;;5073808;28;20021;-20
2022/01/16 07:43:23;;;;;;;26.80;15.93;;;0.30;64.90;;;;;;5074408;28;20162;-19
2022/01/16 07:45:49;;;;;;;15.30;8.18;;;0.50;65.20;;;;;;5073532;28;20032;-19
2022/01/16 07:48:15;;;;;;;27.23;15.15;;;0.60;65.40;;;;;;5072967;28;20431;-19
2022/01/16 07:50:41;;;;;;;17.27;9.60;;;0.70;65.60;;;;;;5073447;28;20027;-19
2022/01/16 07:53:13;;;;;;;15.77;9.38;;;0.80;66.00;;;;;;5073400;28;20059;-19
2022/01/16 07:55:39;;;;;;;19.52;10.40;;;0.90;64.60;;;;;;5073105;28;20048;-20
2022/01/16 07:58:08;;;;;;;26.52;16.13;;;0.90;65.20;;;;;;5073362;28;20028;-19
2022/01/16 08:00:34;;;;;;;15.13;7.60;;;1.10;67.10;;;;;;5073040;28;20039;-19
2022/01/16 08:03:04;;;;;;;12.18;6.65;;;1.20;65.10;;;;;;5073652;28;20384;-19
2022/01/16 08:05:30;;;;;;;14.45;6.72;;;1.20;64.90;;;;;;5073644;28;20025;-20
2022/01/16 08:07:56;;;;;;;14.52;8.15;;;1.30;65.40;;;;;;5073008;28;20021;-19
2022/01/16 08:10:23;;;;;;;49.30;26.75;;;1.40;64.80;;;;;;5073180;28;20020;-20
2022/01/16 08:12:49;;;;;;;34.03;17.73;;;1.60;65.10;;;;;;5073183;28;20029;-19
2022/01/16 08:15:14;;;;;;;34.00;18.67;;;1.60;65.10;;;;;;5073145;28;20550;-19
2022/01/16 08:17:40;;;;;;;60.88;31.33;;;1.80;65.40;;;;;;5073977;28;20021;-20
2022/01/16 08:20:08;;;;;;;35.25;18.88;;;1.90;66.30;;;;;;5076976;28;20115;-19
2022/01/16 08:22:35;;;;;;;53.15;25.48;;;2.00;66.40;;;;;;5076690;28;20043;-19
2022/01/16 08:25:02;;;;;;;51.38;28.58;;;2.10;67.40;;;;;;5077265;28;20109;-20
2022/01/16 08:27:28;;;;;;;42.95;25.33;;;2.30;69.40;;;;;;5076836;28;20485;-20
2022/01/16 08:29:54;;;;;;;42.17;21.75;;;2.40;69.50;;;;;;5076807;28;20027;-19
2022/01/16 08:32:20;;;;;;;42.20;24.65;;;2.60;67.80;;;;;;5058311;28;20054;-19
2022/01/16 08:34:46;;;;;;;38.85;18.80;;;2.80;67.00;;;;;;5077065;28;20028;-20
2022/01/16 08:37:12;;;;;;;31.70;19.35;;;2.90;67.50;;;;;;5076601;28;20397;-20
2022/01/16 08:39:38;;;;;;;37.28;20.83;;;3.20;68.20;;;;;;5075149;28;20040;-20
2022/01/16 08:42:05;;;;;;;29.10;16.75;;;3.30;68.00;;;;;;5076626;28;20033;-20
2022/01/16 08:44:31;;;;;;;26.08;14.98;;;3.50;66.90;;;;;;5074685;28;20041;-20
2022/01/16 08:46:57;;;;;;;38.63;22.13;;;3.80;66.50;;;;;;5075262;28;20035;-20
2022/01/16 08:49:23;;;;;;;19.17;11.20;;;3.90;65.50;;;;;;5076470;28;20028;-20
2022/01/16 08:51:49;;;;;;;25.70;14.93;;;4.10;64.60;;;;;;5076398;28;20082;-20
2022/01/16 08:54:15;;;;;;;23.23;14.70;;;4.40;64.40;;;;;;5075955;28;20025;-20
2022/01/16 08:56:41;;;;;;;28.20;17.73;;;4.70;63.70;;;;;;5076785;28;20025;-20
2022/01/16 08:59:07;;;;;;;28.10;17.98;;;5.00;63.10;;;;;;5076725;28;20373;-21
2022/01/16 09:01:41;;;;;;;36.45;21.90;;;5.30;63.50;;;;;;5076730;28;20032;-20
2022/01/16 09:04:07;;;;;;;31.52;19.08;;;5.60;63.60;;;;;;5076544;28;20024;-20
2022/01/16 09:06:33;;;;;;;34.70;21.80;;;5.90;63.30;;;;;;5076010;28;20024;-21
2022/01/16 09:08:59;;;;;;;25.17;15.02;;;6.10;62.50;;;;;;5076014;28;20111;-20
2022/01/16 09:11:25;;;;;;;28.40;18.30;;;6.40;61.80;;;;;;5076056;28;20123;-21
2022/01/16 09:13:58;;;;;;;28.65;19.35;;;6.70;61.20;;;;;;5076014;28;20035;-20
2022/01/16 09:16:25;;;;;;;29.98;18.08;;;6.90;60.80;;;;;;5075783;28;20060;-20
2022/01/16 09:18:51;;;;;;;38.80;25.38;;;7.10;60.50;;;;;;5076452;28;20025;-21
2022/01/16 09:21:18;;;;;;;30.38;18.77;;;7.40;60.20;;;;;;5075826;28;20036;-21
2022/01/16 09:23:46;;;;;;;28.00;18.27;;;7.60;59.10;;;;;;5075748;28;20028;-21
2022/01/16 09:26:13;;;;;;;37.03;24.75;;;7.90;59.20;;;;;;5075844;28;20028;-22
2022/01/16 09:28:41;;;;;;;33.85;21.77;;;8.10;59.10;;;;;;5074083;28;20029;-21
2022/01/16 09:31:08;;;;;;;40.65;24.60;;;8.30;57.90;;;;;;5075425;28;20025;-20
2022/01/16 09:33:34;;;;;;;23.73;15.32;;;8.50;58.10;;;;;;5075896;28;20651;-21
2022/01/16 09:36:03;;;;;;;27.77;16.48;;;8.80;57.80;;;;;;5075900;28;20028;-21
2022/01/16 09:38:29;;;;;;;37.15;24.30;;;9.00;57.10;;;;;;5075536;28;20137;-20
2022/01/16 09:40:55;;;;;;;25.95;16.80;;;9.30;57.00;;;;;;5075733;28;20037;-20
2022/01/16 09:43:22;;;;;;;18.88;11.30;;;9.60;56.60;;;;;;5075453;28;20166;-20
2022/01/16 09:45:52;;;;;;;20.42;13.10;;;9.80;56.10;;;;;;5076319;28;20510;-20
2022/01/16 09:48:19;;;;;;;28.88;17.08;;;10.10;55.80;;;;;;5075172;28;20458;-21
2022/01/16 09:50:45;;;;;;;35.42;22.35;;;10.40;55.50;;;;;;5075374;28;20497;-21
2022/01/16 09:53:12;;;;;;;34.78;22.48;;;10.70;55.20;;;;;;5075470;28;20012;-21
2022/01/16 09:55:39;;;;;;;31.42;21.15;;;10.90;54.80;;;;;;5075028;28;20052;-21
2022/01/16 09:58:05;;;;;;;28.85;19.95;;;11.10;54.50;;;;;;5075150;28;20060;-21
2022/01/16 10:00:32;;;;;;;22.00;14.60;;;11.30;54.30;;;;;;5075567;28;20027;-21
2022/01/16 10:02:58;;;;;;;26.08;15.55;;;11.50;54.20;;;;;;5073823;28;20086;-21
2022/01/16 10:05:28;;;;;;;23.52;15.77;;;11.60;54.10;;;;;;5075088;28;20028;-21
2022/01/16 10:07:57;;;;;;;23.33;13.48;;;11.90;54.00;;;;;;5075025;28;20468;-20
2022/01/16 10:10:29;;;;;;;18.65;11.02;;;12.00;53.90;;;;;;5075073;28;20025;-20
2022/01/16 10:13:03;;;;;;;23.77;15.63;;;12.30;53.70;;;;;;5074942;28;20488;-20
2022/01/16 10:15:31;;;;;;;29.70;19.73;;;12.50;53.60;;;;;;5074921;28;20069;-20
2022/01/16 10:17:59;;;;;;;27.13;18.30;;;12.80;53.40;;;;;;5075183;28;20166;-20
2022/01/16 10:20:26;;;;;;;38.53;25.55;;;13.00;53.10;;;;;;5074474;28;20120;-20
2022/01/16 10:22:56;;;;;;;20.67;12.98;;;13.20;52.60;;;;;;5074737;28;20606;-20
2022/01/16 10:25:45;;;;;;;27.70;18.17;;;13.40;52.60;;;;;;5074914;28;20044;-20
2022/01/16 10:28:37;;;;;;;31.83;20.90;;;13.50;52.20;;;;;;5074635;28;20028;-21
2022/01/16 10:31:03;;;;;;;19.63;12.20;;;13.80;50.00;;;;;;5074247;28;20492;-20
2022/01/16 10:33:34;;;;;;;17.77;11.57;;;13.90;51.30;;;;;;5074503;28;20078;-21
2022/01/16 10:36:00;;;;;;;24.67;15.95;;;14.10;51.60;;;;;;5074787;28;20032;-20
2022/01/16 10:38:30;;;;;;;23.27;16.23;;;14.20;51.60;;;;;;5074204;28;20021;-21
2022/01/16 10:40:59;;;;;;;25.00;17.27;;;14.50;50.90;;;;;;5074226;28;20423;-20
2022/01/16 10:43:43;;;;;;;21.88;15.10;;;14.70;49.50;;;;;;5074891;28;20035;-21
2022/01/16 10:46:12;;;;;;;23.35;16.15;;;14.90;49.90;;;;;;5074226;28;20021;-20
2022/01/16 10:48:38;;;;;;;17.15;11.90;;;15.10;49.80;;;;;;5074164;28;20036;-20
2022/01/16 10:51:04;;;;;;;16.65;11.38;;;15.30;49.40;;;;;;5074349;28;20012;-20
2022/01/16 10:53:32;;;;;;;21.75;14.55;;;15.50;49.00;;;;;;5074294;28;20021;-21
2022/01/16 10:56:02;;;;;;;16.35;11.05;;;15.70;48.30;;;;;;5073922;28;20048;-20
2022/01/16 10:58:39;;;;;;;16.08;11.30;;;15.70;48.40;;;;;;5073805;28;20468;-21
2022/01/16 11:01:13;;;;;;;16.45;11.38;;;15.80;48.20;;;;;;5073957;28;20043;-20
2022/01/16 11:03:41;;;;;;;19.70;13.35;;;15.90;48.90;;;;;;5074237;28;20102;-20
2022/01/16 11:06:08;;;;;;;18.77;12.45;;;16.00;48.50;;;;;;5074177;28;20052;-20
2022/01/16 11:08:34;;;;;;;20.27;12.70;;;16.10;47.70;;;;;;5073531;28;20044;-20
2022/01/16 11:11:01;;;;;;;14.52;10.68;;;16.10;46.40;;;;;;5074090;28;20044;-20
2022/01/16 11:13:30;;;;;;;12.57;8.38;;;16.30;47.00;;;;;;5074006;28;20451;-21
2022/01/16 11:15:58;;;;;;;15.88;11.15;;;16.50;47.10;;;;;;5073975;28;20491;-21
2022/01/16 11:18:26;;;;;;;13.32;8.75;;;16.80;46.80;;;;;;5074301;28;20116;-21
2022/01/16 11:21:13;;;;;;;15.05;10.15;;;16.90;46.30;;;;;;5073491;28;20066;-21
2022/01/16 11:26:26;;;;;;;15.35;10.43;;;17.40;45.40;;;;;;5073727;28;20385;-21
2022/01/16 11:28:56;;;;;;;17.08;11.50;;;17.50;45.40;;;;;;5073820;28;20116;-21
2022/01/16 11:31:21;;;;;;;18.33;12.48;;;17.80;44.60;;;;;;5073629;28;20104;-20
2022/01/16 11:33:47;;;;;;;16.90;12.63;;;18.00;44.10;;;;;;5073581;28;20107;-20
2022/01/16 11:36:20;;;;;;;12.93;8.15;;;18.30;43.90;;;;;;5073339;28;20063;-21
2022/01/16 11:38:55;;;;;;;19.13;13.35;;;18.60;44.00;;;;;;5073332;28;20032;-21
2022/01/16 11:41:26;;;;;;;14.23;9.90;;;18.90;43.10;;;;;;5073340;28;20400;-20
2022/01/16 11:43:54;;;;;;;15.07;10.68;;;19.30;43.10;;;;;;5073320;28;20111;-20
2022/01/16 11:46:21;;;;;;;13.18;9.95;;;19.60;42.30;;;;;;5073050;28;20492;-20
2022/01/16 11:48:55;;;;;;;12.43;8.48;;;20.00;42.20;;;;;;5073183;28;20058;-20
2022/01/16 11:51:35;;;;;;;12.13;7.70;;;20.40;42.00;;;;;;5073327;28;20107;-20
2022/01/16 11:54:04;;;;;;;15.38;10.25;;;20.70;40.90;;;;;;5072632;28;20078;-20
2022/01/16 11:56:39;;;;;;;11.85;8.55;;;21.10;40.30;;;;;;5072759;28;20070;-20
2022/01/16 11:59:11;;;;;;;10.45;7.43;;;21.50;39.90;;;;;;5072985;28;20028;-21
2022/01/16 12:01:45;;;;;;;12.65;9.27;;;21.80;39.70;;;;;;5073263;28;20107;-20
2022/01/16 12:04:47;;;;;;;14.65;10.05;;;22.10;38.70;;;;;;5073131;28;20021;-22
2022/01/16 12:07:13;;;;;;;14.60;10.55;;;22.40;37.10;;;;;;5072553;28;20078;-20
2022/01/16 12:12:13;;;;;;;9.70;6.18;;;22.90;37.50;;;;;;5073452;28;20369;-20
2022/01/16 12:14:51;;;;;;;10.77;7.18;;;23.20;37.40;;;;;;5073241;28;20028;-20
2022/01/16 12:17:26;;;;;;;9.90;6.10;;;23.40;36.80;;;;;;5074046;28;20024;-21
2022/01/16 12:19:53;;;;;;;15.07;10.13;;;23.60;36.90;;;;;;5073171;28;20040;-20
2022/01/16 12:22:46;;;;;;;15.57;10.52;;;23.90;36.10;;;;;;5072900;28;20064;-21
2022/01/16 12:25:36;;;;;;;14.57;10.27;;;24.20;34.10;;;;;;5072819;28;20023;-20
2022/01/16 12:28:06;;;;;;;14.15;10.27;;;24.40;34.90;;;;;;5073380;28;20029;-20
2022/01/16 12:30:59;;;;;;;11.43;7.97;;;24.60;35.00;;;;;;5072791;28;20040;-20
2022/01/16 12:33:40;;;;;;;12.50;9.18;;;24.70;34.70;;;;;;5073133;28;20036;-20
2022/01/16 12:36:09;;;;;;;14.02;9.77;;;24.90;34.50;;;;;;5073101;28;20051;-21
2022/01/16 12:38:41;;;;;;;10.82;7.40;;;25.00;34.30;;;;;;5073279;28;20052;-21
2022/01/16 12:41:16;;;;;;;14.75;10.23;;;25.10;34.60;;;;;;5071470;28;20024;-21
2022/01/16 12:44:09;;;;;;;16.95;11.43;;;25.10;34.20;;;;;;5073556;28;20040;-21
2022/01/16 12:46:37;;;;;;;16.85;11.40;;;25.10;33.70;;;;;;5072476;28;20046;-20
2022/01/16 12:49:09;;;;;;;18.73;12.82;;;25.10;34.10;;;;;;5073018;28;20392;-21
2022/01/16 12:51:37;;;;;;;18.27;12.57;;;24.90;34.20;;;;;;5072965;28;20067;-21
2022/01/16 12:54:08;;;;;;;18.10;11.55;;;24.50;34.10;;;;;;5072789;28;20021;-20
2022/01/16 12:56:43;;;;;;;16.63;9.80;;;24.20;34.80;;;;;;5072373;28;20060;-20
2022/01/16 12:59:15;;;;;;;13.90;8.68;;;24.00;34.80;;;;;;5072778;28;20021;-21
2022/01/16 13:01:44;;;;;;;21.60;14.63;;;24.00;35.30;;;;;;5072492;28;20032;-20
2022/01/16 13:04:28;;;;;;;22.95;14.75;;;24.00;34.70;;;;;;5072866;28;20086;-20
2022/01/16 13:07:00;;;;;;;14.20;8.88;;;24.00;34.10;;;;;;5076831;28;20047;-20
2022/01/16 13:09:28;;;;;;;14.07;9.63;;;24.00;35.10;;;;;;5076220;28;20104;-21
2022/01/16 13:11:59;;;;;;;15.65;10.88;;;23.90;35.20;;;;;;5076283;28;20025;-20
2022/01/16 13:14:30;;;;;;;14.38;9.55;;;23.80;35.30;;;;;;5076144;28;20024;-20
2022/01/16 13:17:08;;;;;;;20.10;13.10;;;23.60;35.60;;;;;;5076652;28;20027;-21
2022/01/16 13:19:52;;;;;;;15.23;10.30;;;23.50;35.30;;;;;;5075917;28;20434;-20
2022/01/16 13:22:30;;;;;;;14.43;9.32;;;23.40;35.60;;;;;;5075615;28;20508;-21
2022/01/16 13:25:07;;;;;;;17.80;12.45;;;23.40;35.70;;;;;;5076361;28;20040;-21
2022/01/16 13:27:34;;;;;;;16.92;11.50;;;23.40;35.20;;;;;;5075790;28;20029;-20
2022/01/16 13:30:26;;;;;;;20.58;14.45;;;23.60;35.50;;;;;;5075714;28;20025;-20
2022/01/16 13:32:53;;;;;;;19.42;12.70;;;23.90;34.40;;;;;;5075740;28;20427;-20
2022/01/16 13:35:28;;;;;;;21.25;14.90;;;24.30;34.90;;;;;;5075676;28;20024;-20
2022/01/16 13:38:10;;;;;;;15.00;10.52;;;24.60;32.90;;;;;;5075521;28;20116;-21